Nelson, NE (68961)

5:19 AM CST on March 04, 2015 (GMT -0600)
North Superior | Change Station
CLOSE
Current Station
Personal Weather Station
Location: Superior, NE
Elevation: 1617 ft
Nearby Weather Stations

Elev 1617 ft 40.03 °N, 98.07 °W | Updated 1 second ago

Mostly Cloudy
Mostly Cloudy
16.7 °F
Feels Like 17 °F
N
0.0
Wind Variable Wind from North
Gusts 5.0 mph

Today
High -- | Low -- °F
--% Chance of Precip.
Yesterday
High -- | Low -- °F
Precip. -- in
7:01 AM 6:27 PM
Waxing Gibbous, 99% visible
Pressure 30.22 in
Visibility 10.0 miles
Clouds Scattered Clouds 7000 ft
Mostly Cloudy 8500 ft
Mostly Cloudy 12000 ft
Windchill 17 °F
Dew Point 13 °F
Humidity 84%
Rainfall 0.00 in
Snow Depth Not available.
UV 0 out of 12
Pollen 3.40 out of 12
Air Quality Not available.
Flu Activity Not available.
METAR KHJH 041055Z AUTO 00000KT 10SM SCT070 BKN085 BKN120 M09/M11 A3022 RMK AO2 T10881107

More Conditions Fewer Conditions

Pressure 30.22 in
Visibility 10.0 miles
Clouds Scattered Clouds 7000 ft
Mostly Cloudy 8500 ft
Mostly Cloudy 12000 ft
Windchill 17 °F
Dew Point 13 °F
Humidity 84%
Rainfall 0.00 in
Snow Depth Not available.
UV 0 out of 12
Pollen 3.40 out of 12
Air Quality Not available.
Flu Activity Not available.
METAR KHJH 041055Z AUTO 00000KT 10SM SCT070 BKN085 BKN120 M09/M11 A3022 RMK AO2 T10881107

More Conditions Fewer Conditions

10-Day Weather Forecast

Almanac

Astronomy

Mar. 04, 2015 Rise Set
Actual Time
Civil Twilight
Nautical Twilight
Astronomical Twilight
Moon
Length of Visible Light
Length of Day
Tomorrow will be .
, % of the Moon is Illuminated

Today's Extremes

State Highs State Lows

Community

WunderPhotos

Upload Photos

1,802,434 photos uploaded!

WunderBlogs® & News

Nearby

Air Quality

  Air Quality AQ Index Pollutant
Not available.

Snow Depth

Station Depth Elevation

Earthquake Activity

City Distance Mag. Time & Date
Minimum magnitude displayed is 2.5.

Coastal Water Temperatures

Place Temperature

Nearby Weather Stations